page 5824 of 1011524 registered users

eBook PostsUsers

  1. 0honeyeagle4 registered @ 2013-02-06 06:27:51, last login @ 2013-02-06 06:27:51
  2. 0felony14rub registered @ 2013-02-06 06:28:53, last login @ 2013-02-06 06:28:53
  3. 0panscale75 registered @ 2013-02-06 06:29:40, last login @ 2013-02-06 06:29:40
  4. 0cuban44swing registered @ 2013-02-06 06:32:24, last login @ 2013-02-06 06:32:24
  5. 0dress70tiger registered @ 2013-02-06 06:34:58, last login @ 2013-02-06 06:34:58
  6. 0lavonia597 registered @ 2013-02-06 06:35:33, last login @ 2013-02-06 06:35:33
  7. 0viola19client registered @ 2013-02-06 06:35:52, last login @ 2013-02-06 06:35:52
  8. 0puma4ping registered @ 2013-02-06 06:36:13, last login @ 2013-02-06 06:36:13
  9. 0tradekale1 registered @ 2013-02-06 06:36:15, last login @ 2013-02-06 06:36:15
  10. 0animeburst8 registered @ 2013-02-06 06:36:43, last login @ 2013-02-06 06:36:43
  11. 0skatecoin8 registered @ 2013-02-06 06:36:49, last login @ 2013-02-06 06:36:49
  12. 0pastry33walrus registered @ 2013-02-06 06:37:26, last login @ 2013-02-06 06:37:26
  13. 0dypydewzyca830 registered @ 2013-02-06 06:38:13, last login @ 2013-02-06 06:38:13
  14. 0fallwriter78 registered @ 2013-02-06 06:39:00, last login @ 2013-02-06 06:39:00
  15. 0drake6paul registered @ 2013-02-06 06:40:16, last login @ 2013-02-06 06:40:16
  16. 0yokecrack57 registered @ 2013-02-06 06:41:15, last login @ 2013-02-06 06:41:15
  17. 0puma01pickle registered @ 2013-02-06 06:41:22, last login @ 2013-02-06 06:41:22
  18. 0pullghost5 registered @ 2013-02-06 06:41:25, last login @ 2013-02-06 06:41:25
  19. 0donaldcocoa0 registered @ 2013-02-06 06:41:30, last login @ 2013-02-06 06:41:30
  20. 0month9toad registered @ 2013-02-06 06:41:33, last login @ 2013-02-06 06:41:33
  21. 0vasekidney1 registered @ 2013-02-06 06:42:31, last login @ 2013-02-06 06:42:31
  22. 0dress71knee registered @ 2013-02-06 06:46:20, last login @ 2013-02-06 06:46:20
  23. 0force23trowel registered @ 2013-02-06 06:47:17, last login @ 2013-02-06 06:47:17
  24. 0poisoncause67 registered @ 2013-02-06 06:49:07, last login @ 2013-02-06 06:49:07
  25. 0organcork59 registered @ 2013-02-06 06:49:44, last login @ 2013-02-06 06:49:44
  26. 0repair69steven registered @ 2013-02-06 06:50:51, last login @ 2013-02-06 06:50:51
  27. 0rabbit96hood registered @ 2013-02-06 06:53:01, last login @ 2013-02-06 06:53:01
  28. 0giant1fight registered @ 2013-02-06 06:53:19, last login @ 2013-02-06 06:53:19
  29. 0oboe3tempo registered @ 2013-02-06 06:55:29, last login @ 2013-02-06 06:55:29
  30. 0lomzy registered @ 2013-02-06 06:57:36, last login @ 2013-02-06 06:57:36
  31. 0atticquail3 registered @ 2013-02-06 06:58:54, last login @ 2013-02-06 06:58:54
  32. 0changefront63 registered @ 2013-02-06 06:59:23, last login @ 2013-02-06 06:59:23
  33. 0cent9plier registered @ 2013-02-06 06:59:33, last login @ 2013-02-06 06:59:33
  34. 0debt2use registered @ 2013-02-06 07:00:30, last login @ 2013-02-06 07:00:30
  35. 0pajamashovel2 registered @ 2013-02-06 07:01:26, last login @ 2013-02-06 07:01:26
  36. 0crush27makeup registered @ 2013-02-06 07:02:04, last login @ 2013-02-06 07:02:04
  37. 0personmaid24 registered @ 2013-02-06 07:02:58, last login @ 2013-02-06 07:02:58
  38. 0squiseephilia registered @ 2013-02-06 07:03:02, last login @ 2013-02-06 07:03:02
  39. 0ocelotlevel92 registered @ 2013-02-06 07:03:47, last login @ 2013-02-06 07:03:47
  40. 0syriahole9 registered @ 2013-02-06 07:04:13, last login @ 2013-02-06 07:04:13
  41. 0punch90tenor registered @ 2013-02-06 07:06:40, last login @ 2013-02-06 07:06:40
  42. 0taste90pencil registered @ 2013-02-06 07:07:44, last login @ 2013-02-06 07:07:44
  43. 0butane36kendo registered @ 2013-02-06 07:10:50, last login @ 2013-02-06 07:10:50
  44. 0hand43helium registered @ 2013-02-06 07:12:19, last login @ 2013-02-06 07:12:19
  45. 0beadtanker80 registered @ 2013-02-06 07:12:35, last login @ 2013-02-06 07:12:35
  46. 0colorpipe78 registered @ 2013-02-06 07:14:08, last login @ 2013-02-06 07:14:08
  47. 0patchprint2 registered @ 2013-02-06 07:14:18, last login @ 2013-02-06 07:14:18
  48. 0waxwoolen40 registered @ 2013-02-06 07:19:01, last login @ 2013-02-06 07:19:01
  49. 0slice3lion registered @ 2013-02-06 07:19:25, last login @ 2013-02-06 07:19:25
  50. 0graincougar29 registered @ 2013-02-06 07:19:44, last login @ 2013-02-06 07:49:43
  51. 0tipmom9 registered @ 2013-02-06 07:21:00, last login @ 2013-02-06 07:21:00
  52. 0tuba1crate registered @ 2013-02-06 07:21:09, last login @ 2013-02-06 07:21:09
  53. 0racingrice96 registered @ 2013-02-06 07:21:40, last login @ 2013-02-06 07:21:40
  54. 0alibi2point registered @ 2013-02-06 07:23:08, last login @ 2013-02-06 07:23:08
  55. 0angora3stitch registered @ 2013-02-06 07:23:14, last login @ 2013-02-06 07:23:14
  56. 0shark9sock registered @ 2013-02-06 07:23:16, last login @ 2013-02-06 07:23:16
  57. 0eventvan49 registered @ 2013-02-06 07:24:24, last login @ 2013-02-06 07:24:24
  58. 0goosetwine10 registered @ 2013-02-06 07:24:39, last login @ 2013-02-06 07:24:39
  59. 0grease4zinc registered @ 2013-02-06 07:25:35, last login @ 2013-02-06 07:52:31
  60. 0colonysingle2 registered @ 2013-02-06 07:26:37, last login @ 2013-02-06 07:26:37
  61. 0cornethand36 registered @ 2013-02-06 07:27:03, last login @ 2013-02-06 07:27:03
  62. 0trinity920 registered @ 2013-02-06 07:27:09, last login @ 2013-02-06 07:27:09
  63. 0museumspider9 registered @ 2013-02-06 07:28:47, last login @ 2013-02-06 07:28:47
  64. 0matchdrake0 registered @ 2013-02-06 07:29:24, last login @ 2013-02-06 07:29:24
  65. 0winter0kitty registered @ 2013-02-06 07:30:52, last login @ 2013-02-06 07:30:52
  66. 0ariesdrop1 registered @ 2013-02-06 07:31:05, last login @ 2013-02-06 07:31:05
  67. 0detail1badger registered @ 2013-02-06 07:31:07, last login @ 2013-02-06 07:31:07
  68. 0help25size registered @ 2013-02-06 07:31:57, last login @ 2013-02-06 07:31:57
  69. 0cobwebradio03 registered @ 2013-02-06 07:33:56, last login @ 2013-02-06 07:33:56
  70. 0event8course registered @ 2013-02-06 07:34:16, last login @ 2013-02-06 07:34:16
  71. 0rocket7vise registered @ 2013-02-06 07:34:30, last login @ 2013-02-06 07:34:30
  72. 0cobwebstem03 registered @ 2013-02-06 07:35:42, last login @ 2013-02-06 07:35:42
  73. 0case88sleet registered @ 2013-02-06 07:35:46, last login @ 2013-02-06 07:35:46
  74. 0bonsai20weapon registered @ 2013-02-06 07:36:33, last login @ 2013-02-06 07:36:33
  75. 0needle1blue registered @ 2013-02-06 07:37:47, last login @ 2013-02-06 07:37:47
  76. 0piscesburn95 registered @ 2013-02-06 07:38:24, last login @ 2013-02-06 07:38:24
  77. 0calfamount76 registered @ 2013-02-06 07:39:14, last login @ 2013-02-06 07:39:14
  78. 0quartshrimp6 registered @ 2013-02-06 07:39:51, last login @ 2013-02-06 07:39:51
  79. 0beard6mole registered @ 2013-02-06 07:40:08, last login @ 2013-02-06 07:40:08
  80. 0coverview21 registered @ 2013-02-06 07:42:41, last login @ 2013-02-06 07:42:41
  81. 0bellgreek1 registered @ 2013-02-06 07:42:43, last login @ 2013-02-06 07:42:43
  82. 0Storm_guest21 registered @ 2013-02-06 07:43:03, last login @ 2013-02-06 07:43:03
  83. 0air4expert registered @ 2013-02-06 07:49:15, last login @ 2013-02-06 07:49:15
  84. 0format4dragon registered @ 2013-02-06 07:49:25, last login @ 2013-02-06 07:49:25
  85. 0den12okra registered @ 2013-02-06 07:49:59, last login @ 2013-02-06 07:49:59
  86. 0baboonwax01 registered @ 2013-02-06 07:52:00, last login @ 2013-02-06 07:52:00
  87. 0jam3rod registered @ 2013-02-06 07:52:14, last login @ 2013-02-06 07:52:14
  88. 0quietdime32 registered @ 2013-02-06 07:52:39, last login @ 2013-02-06 07:52:39
  89. 0shruthi490 registered @ 2013-02-06 07:52:43, last login @ 2013-02-06 07:52:43
  90. 0male9bait registered @ 2013-02-06 07:52:53, last login @ 2013-02-06 07:52:53
  91. 0goalsled5 registered @ 2013-02-06 07:53:24, last login @ 2013-02-06 07:53:24
  92. 0key68snail registered @ 2013-02-06 07:53:34, last login @ 2013-02-06 07:53:34
  93. 0taiwan7vase registered @ 2013-02-06 07:54:53, last login @ 2013-02-06 07:54:53
  94. 0stone3washer registered @ 2013-02-06 07:54:54, last login @ 2013-02-06 07:54:54
  95. 0valuewedge3 registered @ 2013-02-06 07:55:43, last login @ 2013-02-06 07:55:43
  96. 0powerforce04 registered @ 2013-02-06 07:58:17, last login @ 2013-02-06 07:58:17
  97. 0epoch80soda registered @ 2013-02-06 07:59:14, last login @ 2013-02-06 07:59:14
  98. 0koshka16 registered @ 2013-02-06 07:59:36, last login @ 2013-02-06 07:59:36
  99. 0nosetongue2 registered @ 2013-02-06 07:59:48, last login @ 2013-02-06 07:59:48
  100. 0battle93galley registered @ 2013-02-06 07:59:56, last login @ 2013-02-06 07:59:56
  101. 0lookflood1 registered @ 2013-02-06 08:00:32, last login @ 2013-02-06 08:00:32

More...

[5834] [5833] [5832] [5831] [5830] [5829] [5828] [5827] [5826] [5825] [5824] [5823] [5822] [5821] [5820] [5819] [5818] [5817] [5816] [5815] ...[1]
Back to Top